This is the latest recevied weather packets stored in our database for station/object Krozingen. If no packets are shown the sender has not sent any weather packets the latest 1 day(s).
| Time | Temp. | Humidity | Pressure | Rain* | Wind** | Luminosity | Snow |
|---|---|---|---|---|---|---|---|
| 1777969931 | 15.56° C | 86% | 1009.8 hPa | 0 mm | 0.45 m/s, 51° | - | - |
| 1777968130 | 15° C | 85% | 1009.9 hPa | 0 mm | 0.45 m/s, 30° | - | - |
| 1777966330 | 14.44° C | 89% | 1010.1 hPa | 0 mm | 0.45 m/s, 250° | - | - |
| 1777964531 | 13.33° C | 91% | 1010.2 hPa | 0 mm | 0.89 m/s, 238° | - | - |
| 1777962731 | 12.78° C | 92% | 1010.3 hPa | 0 mm | 0.89 m/s, 273° | - | - |
| 1777960932 | 12.22° C | 93% | 1010.5 hPa | 0 mm | 0 m/s | - | - |
| 1777959131 | 12.22° C | 94% | 1010.5 hPa | 0 mm | 0.45 m/s, 229° | - | - |
| 1777957331 | 11.67° C | 94% | 1010.4 hPa | 0 mm | 0.45 m/s, 227° | - | - |
| 1777955531 | 11.67° C | 93% | 1010.3 hPa | 0 mm | 0.45 m/s, 47° | - | - |
| 1777953730 | 11.67° C | 92% | 1010.4 hPa | 0 mm | 0.89 m/s, 124° | - | - |
| 1777951931 | 11.67° C | 93% | 1010.3 hPa | 0 mm | 0.45 m/s, 300° | - | - |
| 1777950133 | 11.67° C | 92% | 1010.4 hPa | 0 mm | 2.24 m/s, 185° | - | - |
| 1777948331 | 11.67° C | 93% | 1010.8 hPa | 0 mm | 0.45 m/s, 117° | - | - |
| 1777946531 | 11.11° C | 93% | 1011.1 hPa | 0 mm | 0 m/s | - | - |
| 1777944731 | 11.67° C | 93% | 1011.4 hPa | 0 mm | 0 m/s | - | - |
| 1777942931 | 11.67° C | 92% | 1011.6 hPa | 0 mm | 0.45 m/s, 241° | - | - |
| 1777941128 | 12.22° C | 90% | 1011.9 hPa | 0 mm | 0.89 m/s, 127° | - | - |
| 1777939330 | 12.78° C | 91% | 1012.2 hPa | 0 mm | 0.45 m/s, 122° | - | - |
| 1777937529 | 12.78° C | 92% | 1012.4 hPa | 0 mm | 0 m/s | - | - |
| 1777935729 | 12.78° C | 93% | 1012.7 hPa | 0 mm | 0 m/s | - | - |
| 1777933934 | 12.78° C | 92% | 1012.6 hPa | 0 mm | 0 m/s | - | - |
| 1777932129 | 12.78° C | 92% | 1012.6 hPa | 0.51 mm | 0.45 m/s, 91° | - | - |
| 1777930329 | 12.78° C | 92% | 1013.3 hPa | 0.51 mm | 0.45 m/s, 137° | - | - |
* Rain since midnight (hover to see other rain measurements)
** Current wind speed in m/s (hover to see current wind gust speed)